createdAt,value
2022-08-19T00:00:25.305Z,87.46
2022-08-19T00:01:29.227Z,89.07
2022-08-19T00:02:27.418Z,89.53
2022-08-19T00:03:24.244Z,89.66
2022-08-19T00:04:29.618Z,88.63
2022-08-19T00:05:26.658Z,88.64
2022-08-19T00:06:23.571Z,89.21
2022-08-19T00:07:21.055Z,90.51
2022-08-19T00:08:17.793Z,90.83
2022-08-19T00:09:18.307Z,91.47
2022-08-19T00:10:17.625Z,91.19
2022-08-19T00:11:18.696Z,91.24
2022-08-19T00:12:22.948Z,90.58
2022-08-19T00:13:19.719Z,90.62
2022-08-19T00:14:18.432Z,89.01
2022-08-19T00:15:18.384Z,89.46
2022-08-19T00:16:16.157Z,89.42
2022-08-19T00:17:13.655Z,88.65
2022-08-19T00:18:10.397Z,88.41
2022-08-19T00:19:07.293Z,89.57
2022-08-19T00:20:04.712Z,89.60
2022-08-19T00:21:01.627Z,90.24
2022-08-19T00:21:58.382Z,90.86
2022-08-19T00:22:55.396Z,91.05
2022-08-19T00:23:52.237Z,91.56
2022-08-19T00:24:50.810Z,92.63
2022-08-19T00:25:48.663Z,94.23
2022-08-19T00:26:46.733Z,93.43
2022-08-19T00:27:43.523Z,93.11
2022-08-19T00:28:40.305Z,94.20
2022-08-19T00:29:37.489Z,95.45
2022-08-19T00:30:34.230Z,95.46
2022-08-19T00:31:32.151Z,96.67
2022-08-19T00:32:28.920Z,95.60
2022-08-19T00:33:27.369Z,95.52
2022-08-19T00:34:31.154Z,95.39
2022-08-19T00:35:28.520Z,96.86
2022-08-19T00:36:25.272Z,96.30
2022-08-19T00:37:24.257Z,94.85
2022-08-19T00:38:35.174Z,95.26
2022-08-19T00:39:34.772Z,96.24
2022-08-19T00:40:31.789Z,97.21
2022-08-19T00:41:29.482Z,98.02
2022-08-19T00:42:29.374Z,96.96
2022-08-19T00:43:28.434Z,97.13
2022-08-19T00:44:29.313Z,96.86
2022-08-19T00:45:31.465Z,96.74
2022-08-19T00:46:30.147Z,96.91
2022-08-19T00:47:27.001Z,97.37
2022-08-19T00:48:24.496Z,98.21
2022-08-19T00:49:35.536Z,100.00
2022-08-19T00:50:33.650Z,100.00
2022-08-19T00:51:33.482Z,100.00
2022-08-19T00:52:35.767Z,100.00
2022-08-19T00:53:35.046Z,100.00
2022-08-19T00:54:32.668Z,100.00
2022-08-19T00:55:29.869Z,100.00
2022-08-19T00:56:27.953Z,100.00
2022-08-19T00:57:35.885Z,100.00
2022-08-19T00:58:35.577Z,100.00
2022-08-19T01:00:00.286Z,100.00
2022-08-19T01:00:49.790Z,100.00
2022-08-19T01:01:48.075Z,100.00
2022-08-19T01:02:46.545Z,100.00
2022-08-19T01:03:57.866Z,100.00
2022-08-19T01:04:56.355Z,99.61
2022-08-19T01:05:55.651Z,100.00
2022-08-19T01:06:52.447Z,100.00
2022-08-19T01:07:51.909Z,100.00
2022-08-19T01:08:50.194Z,100.00
2022-08-19T01:09:47.731Z,100.00
2022-08-19T01:10:53.065Z,100.00
2022-08-19T01:11:50.296Z,100.00
2022-08-19T01:12:49.279Z,100.00
2022-08-19T01:13:49.418Z,100.00
2022-08-19T01:14:48.596Z,100.00
2022-08-19T01:15:54.768Z,99.28
2022-08-19T01:16:56.493Z,97.20
2022-08-19T01:17:55.358Z,96.45
2022-08-19T01:18:52.460Z,93.86
2022-08-19T01:19:49.639Z,91.72
2022-08-19T01:20:47.101Z,90.55
2022-08-19T01:21:55.770Z,89.18
2022-08-19T01:22:56.443Z,88.04
2022-08-19T01:23:53.384Z,88.08
2022-08-19T01:24:51.334Z,88.93
2022-08-19T01:25:52.920Z,91.64
2022-08-19T01:26:49.727Z,92.70
2022-08-19T01:27:53.603Z,93.31
2022-08-19T01:28:54.370Z,93.62
2022-08-19T01:29:56.133Z,93.55
2022-08-19T01:30:55.323Z,90.94
2022-08-19T01:31:54.304Z,90.95
2022-08-19T01:32:53.360Z,89.25
2022-08-19T01:33:53.194Z,85.64
2022-08-19T01:34:49.931Z,87.30
2022-08-19T01:35:51.410Z,88.79
2022-08-19T01:36:50.082Z,89.66
2022-08-19T01:37:54.942Z,89.79
2022-08-19T01:38:51.647Z,89.14
2022-08-19T01:39:48.538Z,87.83
2022-08-19T01:40:45.384Z,89.16
2022-08-19T01:41:42.255Z,88.60
2022-08-19T01:42:39.973Z,87.51
2022-08-19T01:43:37.337Z,89.17
2022-08-19T01:44:34.310Z,88.04
2022-08-19T01:45:34.562Z,88.51
2022-08-19T01:46:32.323Z,90.25
2022-08-19T01:47:29.109Z,90.37
2022-08-19T01:48:26.000Z,89.77
2022-08-19T01:49:26.124Z,90.77
2022-08-19T01:50:23.216Z,91.83
2022-08-19T01:51:20.898Z,92.40
2022-08-19T01:52:17.750Z,92.20
2022-08-19T01:53:14.630Z,91.16
2022-08-19T01:54:23.339Z,91.37
2022-08-19T01:55:25.060Z,90.95
2022-08-19T01:56:23.588Z,90.91
2022-08-19T01:57:20.541Z,91.81
2022-08-19T01:58:23.837Z,93.74
2022-08-19T01:59:25.203Z,93.25
2022-08-19T02:00:25.984Z,93.88
2022-08-19T02:01:22.791Z,94.69
2022-08-19T02:02:19.682Z,94.04
2022-08-19T02:03:17.484Z,93.89
2022-08-19T02:04:15.526Z,93.36
2022-08-19T02:05:13.623Z,94.97
2022-08-19T02:06:10.397Z,96.06
2022-08-19T02:07:09.094Z,95.13
2022-08-19T02:08:06.083Z,95.72
2022-08-19T02:09:06.777Z,96.71
2022-08-19T02:10:12.534Z,96.18
2022-08-19T02:11:10.236Z,96.09
2022-08-19T02:12:09.782Z,95.98
2022-08-19T02:13:06.541Z,95.35
2022-08-19T02:14:06.752Z,95.51
2022-08-19T02:15:04.572Z,96.26
2022-08-19T02:16:01.343Z,95.51
2022-08-19T02:17:01.109Z,95.26
2022-08-19T02:17:57.839Z,95.35
2022-08-19T02:18:55.701Z,96.62
2022-08-19T02:19:52.401Z,99.51
2022-08-19T02:20:49.211Z,100.00
2022-08-19T02:21:46.076Z,99.67
2022-08-19T02:22:43.878Z,100.00
2022-08-19T02:23:40.602Z,100.00
2022-08-19T02:24:37.335Z,100.00
2022-08-19T02:25:34.054Z,100.00
2022-08-19T02:26:31.267Z,100.00
2022-08-19T02:27:28.011Z,100.00
2022-08-19T02:28:24.756Z,100.00
2022-08-19T02:29:21.719Z,100.00
2022-08-19T02:30:19.972Z,100.00
2022-08-19T02:31:20.638Z,100.00
2022-08-19T02:32:19.749Z,100.00
2022-08-19T02:33:17.475Z,100.00
2022-08-19T02:34:14.204Z,100.00
2022-08-19T02:35:12.480Z,100.00
2022-08-19T02:36:13.031Z,100.00
2022-08-19T02:37:32.312Z,100.00
2022-08-19T02:38:31.922Z,100.00
2022-08-19T02:39:28.686Z,100.00
2022-08-19T02:40:25.451Z,100.00
2022-08-19T02:41:30.226Z,100.00
2022-08-19T02:42:26.962Z,100.00
2022-08-19T02:43:25.540Z,100.00
2022-08-19T02:44:31.288Z,100.00
2022-08-19T02:45:32.590Z,100.00
2022-08-19T02:46:32.868Z,100.00
2022-08-19T02:47:29.578Z,100.00
2022-08-19T02:48:26.996Z,100.00
2022-08-19T02:49:23.818Z,100.00
2022-08-19T02:50:20.810Z,100.00
2022-08-19T02:51:23.882Z,100.00
2022-08-19T02:52:20.609Z,100.00
2022-08-19T02:53:17.353Z,100.00
2022-08-19T02:54:15.404Z,100.00
2022-08-19T02:55:12.170Z,100.00
2022-08-19T02:56:09.180Z,100.00
2022-08-19T02:57:07.165Z,100.00
2022-08-19T02:58:03.897Z,100.00
2022-08-19T02:59:11.976Z,100.00
2022-08-19T03:00:13.422Z,100.00
2022-08-19T03:01:11.499Z,100.00
2022-08-19T03:02:08.301Z,100.00
2022-08-19T03:03:05.079Z,100.00
2022-08-19T03:04:05.130Z,100.00
2022-08-19T03:05:04.625Z,100.00
2022-08-19T03:06:11.573Z,100.00
2022-08-19T03:07:10.886Z,100.00
2022-08-19T03:08:08.906Z,100.00
2022-08-19T03:09:05.778Z,100.00
2022-08-19T03:10:02.792Z,100.00
2022-08-19T03:10:59.542Z,100.00
2022-08-19T03:11:56.297Z,100.00
2022-08-19T03:12:53.176Z,100.00
2022-08-19T03:13:51.450Z,100.00
2022-08-19T03:14:48.477Z,100.00
2022-08-19T03:15:48.417Z,100.00
2022-08-19T03:16:51.846Z,100.00
2022-08-19T03:17:48.563Z,100.00
2022-08-19T03:18:47.513Z,100.00
2022-08-19T03:19:44.266Z,100.00
2022-08-19T03:20:47.273Z,100.00
2022-08-19T03:21:45.913Z,100.00
2022-08-19T03:22:42.655Z,100.00
2022-08-19T03:23:40.521Z,100.00
2022-08-19T03:24:38.478Z,100.00
2022-08-19T03:25:45.797Z,100.00
2022-08-19T03:26:45.903Z,100.00
2022-08-19T03:27:42.642Z,100.00
2022-08-19T03:28:39.381Z,100.00
2022-08-19T03:29:43.232Z,100.00
2022-08-19T03:30:43.565Z,100.00
2022-08-19T03:31:52.500Z,100.00
2022-08-19T03:32:53.410Z,100.00
2022-08-19T03:33:54.205Z,100.00
2022-08-19T03:34:51.960Z,100.00
2022-08-19T03:35:49.102Z,100.00
2022-08-19T03:36:47.532Z,100.00
2022-08-19T03:37:44.276Z,100.00
2022-08-19T03:38:45.443Z,100.00
2022-08-19T03:39:43.294Z,100.00
2022-08-19T03:40:40.068Z,100.00
2022-08-19T03:41:46.068Z,100.00
2022-08-19T03:42:49.028Z,100.00
2022-08-19T03:43:56.329Z,100.00
2022-08-19T03:44:53.761Z,100.00
2022-08-19T03:45:50.675Z,100.00
2022-08-19T03:46:52.185Z,100.00
2022-08-19T03:47:49.214Z,100.00
2022-08-19T03:48:45.937Z,100.00
2022-08-19T03:49:42.984Z,100.00
2022-08-19T03:50:41.854Z,100.00
2022-08-19T03:51:40.133Z,100.00
2022-08-19T03:52:37.226Z,100.00
2022-08-19T03:53:36.022Z,100.00
2022-08-19T03:54:32.947Z,100.00
2022-08-19T03:55:30.181Z,100.00
2022-08-19T03:56:28.886Z,100.00
2022-08-19T03:57:31.761Z,100.00
2022-08-19T03:58:30.462Z,100.00
2022-08-19T03:59:31.596Z,100.00
2022-08-19T04:00:28.359Z,100.00
2022-08-19T04:01:30.703Z,100.00
2022-08-19T04:02:32.355Z,100.00
2022-08-19T04:03:29.439Z,100.00
2022-08-19T04:04:29.284Z,100.00
2022-08-19T04:05:44.822Z,100.00
2022-08-19T04:06:41.570Z,100.00
2022-08-19T04:07:38.301Z,100.00
2022-08-19T04:08:35.588Z,100.00
2022-08-19T04:09:37.567Z,100.00
2022-08-19T04:10:38.329Z,100.00
2022-08-19T04:11:44.976Z,100.00
2022-08-19T04:12:41.794Z,100.00
2022-08-19T04:13:39.279Z,100.00
2022-08-19T04:14:36.633Z,100.00
2022-08-19T04:15:39.904Z,100.00
2022-08-19T04:16:36.773Z,100.00
2022-08-19T04:17:34.189Z,100.00
2022-08-19T04:18:34.731Z,100.00
2022-08-19T04:19:35.567Z,100.00
2022-08-19T04:20:32.455Z,100.00
2022-08-19T04:21:29.858Z,100.00
2022-08-19T04:22:26.663Z,100.00
2022-08-19T04:23:25.770Z,100.00
2022-08-19T04:24:24.263Z,100.00
2022-08-19T04:25:20.976Z,100.00
2022-08-19T04:26:24.566Z,100.00
2022-08-19T04:27:21.302Z,100.00
2022-08-19T04:28:19.570Z,100.00
2022-08-19T04:29:25.625Z,100.00
2022-08-19T04:30:22.777Z,100.00
2022-08-19T04:31:26.934Z,100.00
2022-08-19T04:32:23.686Z,100.00
2022-08-19T04:33:26.715Z,100.00
2022-08-19T04:34:29.297Z,100.00
2022-08-19T04:35:26.069Z,100.00
2022-08-19T04:36:32.229Z,100.00
2022-08-19T04:37:29.554Z,100.00
2022-08-19T04:38:32.053Z,100.00
2022-08-19T04:39:50.272Z,100.00
2022-08-19T04:41:08.161Z,100.00
2022-08-19T04:42:30.729Z,100.00
2022-08-19T04:43:29.085Z,100.00
2022-08-19T04:44:26.603Z,100.00
2022-08-19T04:45:23.685Z,100.00
2022-08-19T04:46:39.978Z,99.18
2022-08-19T04:47:51.541Z,96.45
2022-08-19T04:49:01.286Z,95.49
2022-08-19T04:50:10.089Z,94.92
2022-08-19T04:51:12.164Z,95.90
2022-08-19T04:52:09.423Z,95.07
2022-08-19T04:53:06.213Z,95.19
2022-08-19T04:54:04.089Z,94.41
2022-08-19T04:55:01.049Z,96.54
2022-08-19T04:56:01.894Z,97.49
2022-08-19T04:56:58.930Z,95.44
2022-08-19T04:57:55.896Z,94.13
2022-08-19T04:58:54.036Z,93.72
2022-08-19T04:59:55.813Z,94.65
2022-08-19T05:00:53.345Z,95.15
2022-08-19T05:01:50.822Z,95.30
2022-08-19T05:02:47.920Z,94.92
2022-08-19T05:03:44.810Z,93.63
2022-08-19T05:04:41.691Z,93.72
2022-08-19T05:05:44.633Z,94.92
2022-08-19T05:06:42.070Z,94.35
2022-08-19T05:07:39.126Z,95.51
2022-08-19T05:08:38.397Z,96.57
2022-08-19T05:09:55.505Z,94.64
2022-08-19T05:10:53.357Z,93.00
2022-08-19T05:11:50.730Z,93.88
2022-08-19T05:12:47.487Z,93.22
2022-08-19T05:13:45.600Z,93.22
2022-08-19T05:14:42.337Z,94.27
2022-08-19T05:15:39.558Z,95.61
2022-08-19T05:16:36.990Z,92.60
2022-08-19T05:17:38.278Z,89.82
2022-08-19T05:19:04.925Z,86.62
2022-08-19T05:20:20.933Z,86.18
2022-08-19T05:21:38.502Z,84.60
2022-08-19T05:22:38.275Z,83.04
2022-08-19T05:23:35.169Z,84.35
2022-08-19T05:24:35.070Z,83.46
2022-08-19T05:25:31.887Z,83.26
2022-08-19T05:26:29.723Z,84.60
2022-08-19T05:27:26.495Z,85.64
2022-08-19T05:28:23.257Z,84.56
2022-08-19T05:29:22.502Z,83.03
2022-08-19T05:30:33.413Z,82.02
2022-08-19T05:31:39.361Z,83.27
2022-08-19T05:32:39.684Z,86.67
2022-08-19T05:33:36.547Z,87.00
2022-08-19T05:34:33.911Z,86.30
2022-08-19T05:35:34.762Z,85.81
2022-08-19T05:36:40.235Z,85.75
2022-08-19T05:37:37.581Z,86.58
2022-08-19T05:38:36.365Z,86.01
2022-08-19T05:39:36.432Z,85.70
2022-08-19T05:40:39.139Z,84.86
2022-08-19T05:41:36.026Z,82.96
2022-08-19T05:42:32.888Z,82.96
2022-08-19T05:43:29.633Z,85.43
2022-08-19T05:44:31.506Z,85.30
2022-08-19T05:45:28.887Z,87.69
2022-08-19T05:46:27.955Z,90.63
2022-08-19T05:47:25.093Z,92.07
2022-08-19T05:48:21.789Z,91.84
2022-08-19T05:49:18.586Z,89.20
2022-08-19T05:50:15.396Z,87.98
2022-08-19T05:51:12.198Z,86.54
2022-08-19T05:52:14.403Z,84.46
2022-08-19T05:53:17.339Z,83.41
2022-08-19T05:54:14.447Z,84.53
2022-08-19T05:55:11.522Z,83.20
2022-08-19T05:56:12.126Z,83.64
2022-08-19T05:57:09.509Z,83.44
2022-08-19T05:58:09.546Z,82.59
2022-08-19T05:59:10.220Z,81.82
2022-08-19T06:00:11.859Z,82.66
2022-08-19T06:01:17.649Z,82.51
2022-08-19T06:02:15.169Z,84.16
2022-08-19T06:03:13.298Z,82.28
2022-08-19T06:04:10.250Z,83.18
2022-08-19T06:05:09.976Z,82.98
2022-08-19T06:06:09.458Z,81.65
2022-08-19T06:07:12.574Z,81.35
2022-08-19T06:08:09.799Z,80.17
2022-08-19T06:09:08.722Z,78.07
2022-08-19T06:10:08.623Z,78.42
2022-08-19T06:11:17.485Z,76.20
2022-08-19T06:12:14.233Z,76.20
2022-08-19T06:13:10.955Z,77.40
2022-08-19T06:14:16.699Z,79.41
2022-08-19T06:15:15.735Z,77.86
2022-08-19T06:16:12.440Z,76.63
2022-08-19T06:17:09.356Z,77.26
2022-08-19T06:18:06.150Z,75.45
2022-08-19T06:19:07.306Z,75.74
2022-08-19T06:20:12.888Z,74.84
2022-08-19T06:21:09.631Z,73.24
2022-08-19T06:22:07.627Z,74.58
2022-08-19T06:23:04.727Z,74.02
2022-08-19T06:24:01.463Z,72.99
2022-08-19T06:24:58.440Z,74.22
2022-08-19T06:25:55.168Z,76.83
2022-08-19T06:26:56.714Z,76.73
2022-08-19T06:28:14.219Z,74.99
2022-08-19T06:29:23.762Z,74.72
2022-08-19T06:30:20.987Z,73.42
2022-08-19T06:31:24.965Z,72.50
2022-08-19T06:32:21.691Z,72.22
2022-08-19T06:33:18.710Z,70.48
2022-08-19T06:34:15.689Z,69.58
2022-08-19T06:35:14.203Z,70.08
2022-08-19T06:36:38.849Z,70.63
2022-08-19T06:37:35.683Z,72.79
2022-08-19T06:38:34.352Z,72.12
2022-08-19T06:39:35.908Z,71.49
2022-08-19T06:40:32.726Z,70.89
2022-08-19T06:41:31.526Z,70.12
2022-08-19T06:42:28.337Z,71.95
2022-08-19T06:43:28.151Z,72.03
2022-08-19T06:44:31.932Z,71.06
2022-08-19T06:45:34.980Z,68.99
2022-08-19T06:46:33.488Z,69.00
2022-08-19T06:47:33.501Z,68.66
2022-08-19T06:48:31.370Z,67.93
2022-08-19T06:49:31.921Z,66.95
2022-08-19T06:50:29.403Z,68.04
2022-08-19T06:51:28.962Z,67.78
2022-08-19T06:52:28.697Z,68.28
2022-08-19T06:53:25.694Z,69.62
2022-08-19T06:54:22.517Z,69.72
2022-08-19T06:55:20.774Z,70.74
2022-08-19T06:56:20.146Z,68.92
2022-08-19T06:57:17.259Z,67.55
2022-08-19T06:58:14.169Z,65.42
2022-08-19T06:59:14.117Z,65.80
2022-08-19T07:00:14.173Z,65.91
2022-08-19T07:01:11.500Z,65.16
2022-08-19T07:02:08.544Z,65.43
2022-08-19T07:03:08.645Z,65.58
2022-08-19T07:04:09.430Z,68.21
2022-08-19T07:05:09.228Z,67.87
2022-08-19T07:06:39.402Z,66.56
2022-08-19T07:07:32.594Z,66.54
2022-08-19T07:08:30.514Z,65.85
2022-08-19T07:09:28.070Z,65.22
2022-08-19T07:10:27.361Z,64.82
2022-08-19T07:11:24.129Z,64.45
2022-08-19T07:12:21.040Z,65.54
2022-08-19T07:13:20.171Z,64.93
2022-08-19T07:14:20.240Z,64.45
2022-08-19T07:15:17.242Z,65.18
2022-08-19T07:16:20.349Z,65.02
2022-08-19T07:17:26.931Z,65.11
2022-08-19T07:18:23.938Z,64.99
2022-08-19T07:19:29.475Z,63.06
2022-08-19T07:20:28.510Z,64.56
2022-08-19T07:21:31.520Z,64.21
2022-08-19T07:22:35.602Z,62.91
2022-08-19T07:23:33.391Z,62.32
2022-08-19T07:24:33.569Z,61.97
2022-08-19T07:25:32.563Z,62.12
2022-08-19T07:26:33.376Z,61.38
2022-08-19T07:27:30.586Z,63.58
2022-08-19T07:28:31.024Z,62.99
2022-08-19T07:29:31.411Z,62.79
2022-08-19T07:30:28.187Z,61.89
2022-08-19T07:31:27.949Z,60.47
2022-08-19T07:32:28.269Z,59.78
2022-08-19T07:33:25.397Z,59.51
2022-08-19T07:34:26.240Z,60.05
2022-08-19T07:35:24.482Z,59.03
2022-08-19T07:36:23.990Z,58.95
2022-08-19T07:37:22.936Z,57.76
2022-08-19T07:38:19.764Z,58.41
2022-08-19T07:39:23.009Z,60.08
2022-08-19T07:40:19.803Z,58.86
2022-08-19T07:41:22.082Z,58.49
2022-08-19T07:42:21.695Z,58.45
2022-08-19T07:43:21.876Z,58.52
2022-08-19T07:44:21.530Z,58.17
2022-08-19T07:45:18.278Z,57.44
2022-08-19T07:46:15.226Z,56.99
2022-08-19T07:47:48.234Z,57.29
2022-08-19T07:48:29.605Z,55.56
2022-08-19T07:49:27.300Z,56.08
2022-08-19T07:50:24.181Z,55.87
2022-08-19T07:51:29.515Z,56.50
2022-08-19T07:52:33.902Z,57.22
2022-08-19T07:53:36.724Z,56.53
2022-08-19T07:54:38.929Z,55.18
2022-08-19T07:55:41.839Z,55.20
2022-08-19T07:56:40.562Z,56.32
2022-08-19T07:57:37.335Z,56.29
2022-08-19T07:58:39.195Z,56.91
2022-08-19T07:59:36.070Z,56.43
2022-08-19T08:00:33.213Z,57.00
2022-08-19T08:01:30.379Z,56.03
2022-08-19T08:02:27.171Z,56.71
2022-08-19T08:03:43.593Z,56.16
2022-08-19T08:04:58.994Z,55.34
2022-08-19T08:06:14.374Z,54.38
2022-08-19T08:07:31.617Z,53.52
2022-08-19T08:08:44.439Z,53.10
2022-08-19T08:09:49.677Z,52.18
2022-08-19T08:10:51.011Z,51.07
2022-08-19T08:11:53.815Z,50.92
2022-08-19T08:13:08.543Z,50.87
2022-08-19T08:14:09.171Z,50.69
2022-08-19T08:15:26.124Z,49.65
2022-08-19T08:16:22.850Z,49.00
2022-08-19T08:17:30.992Z,49.35
2022-08-19T08:18:42.500Z,49.47
2022-08-19T08:19:42.124Z,49.81
2022-08-19T08:20:39.674Z,50.35
2022-08-19T08:21:36.798Z,50.22
2022-08-19T08:22:52.487Z,49.83
2022-08-19T08:23:53.195Z,49.13
2022-08-19T08:24:51.182Z,49.20
2022-08-19T08:25:49.469Z,49.09
2022-08-19T08:26:46.853Z,49.84
2022-08-19T08:27:50.899Z,48.63
2022-08-19T08:28:50.970Z,48.63
2022-08-19T08:29:50.054Z,49.15
2022-08-19T08:30:49.294Z,48.93
2022-08-19T08:31:47.829Z,48.10
2022-08-19T08:32:52.017Z,47.41
2022-08-19T08:33:49.064Z,47.68
2022-08-19T08:34:47.394Z,48.18
2022-08-19T08:35:49.499Z,48.16
2022-08-19T08:36:47.422Z,46.50
2022-08-19T08:37:46.933Z,48.19
2022-08-19T08:38:49.092Z,47.29
2022-08-19T08:39:45.966Z,47.62
2022-08-19T08:40:50.952Z,47.06
2022-08-19T08:42:17.839Z,46.59
2022-08-19T08:43:27.752Z,46.75
2022-08-19T08:46:12.294Z,46.87
2022-08-19T08:47:16.682Z,46.93
2022-08-19T08:48:38.788Z,46.85
2022-08-19T08:49:52.510Z,45.92
2022-08-19T08:50:54.318Z,45.70
2022-08-19T08:52:04.124Z,45.64
2022-08-19T08:53:01.236Z,45.18
2022-08-19T08:53:58.718Z,45.83
2022-08-19T08:55:00.371Z,46.64
2022-08-19T08:55:57.121Z,45.75
2022-08-19T08:56:55.173Z,44.05
2022-08-19T08:58:17.469Z,42.43
2022-08-19T08:59:34.456Z,43.07
2022-08-19T09:00:36.065Z,43.32
2022-08-19T09:01:32.893Z,43.35
2022-08-19T09:02:29.659Z,42.63
2022-08-19T09:03:31.616Z,41.82
2022-08-19T09:04:29.465Z,42.29
2022-08-19T09:05:56.765Z,41.94
2022-08-19T09:07:34.791Z,41.84
2022-08-19T09:08:51.499Z,42.22
2022-08-19T09:10:04.884Z,40.92
2022-08-19T09:11:10.465Z,41.75
2022-08-19T09:12:45.816Z,41.71
2022-08-19T09:13:56.216Z,41.39
2022-08-19T09:15:06.689Z,41.67
2022-08-19T09:16:17.485Z,41.86
2022-08-19T09:17:19.141Z,41.58
2022-08-19T09:18:19.325Z,41.97
2022-08-19T09:19:22.438Z,42.28
2022-08-19T09:20:23.772Z,42.01
2022-08-19T09:21:25.970Z,41.55
2022-08-19T09:22:28.060Z,41.63
2022-08-19T09:23:26.816Z,40.31
2022-08-19T09:24:23.835Z,40.43
2022-08-19T09:25:29.563Z,40.71
2022-08-19T09:26:30.665Z,40.57
2022-08-19T09:27:45.531Z,39.69
2022-08-19T09:28:45.190Z,39.33
2022-08-19T09:29:45.786Z,38.36
2022-08-19T09:30:43.725Z,39.52
2022-08-19T09:31:40.973Z,39.12
2022-08-19T09:32:38.282Z,38.70
2022-08-19T09:33:35.007Z,37.67
2022-08-19T09:34:37.773Z,36.89
2022-08-19T09:35:49.830Z,37.26
2022-08-19T09:36:55.474Z,36.54
2022-08-19T09:37:54.633Z,36.00
2022-08-19T09:38:54.577Z,36.04
2022-08-19T09:39:52.363Z,36.89
2022-08-19T09:40:51.027Z,37.18
2022-08-19T09:41:49.141Z,37.23
2022-08-19T09:42:49.982Z,38.27
2022-08-19T09:43:53.104Z,37.64
2022-08-19T09:44:50.254Z,37.39
2022-08-19T09:45:46.985Z,37.23
2022-08-19T09:46:43.741Z,37.12
2022-08-19T09:47:40.856Z,36.67
2022-08-19T09:48:38.506Z,37.72
2022-08-19T09:49:35.295Z,37.88
2022-08-19T09:50:36.724Z,37.41
2022-08-19T09:51:35.017Z,36.50
2022-08-19T09:52:32.690Z,37.34
2022-08-19T09:53:29.857Z,37.33
2022-08-19T09:54:29.633Z,37.23
2022-08-19T09:55:31.631Z,36.84
2022-08-19T09:56:31.238Z,36.77
2022-08-19T09:57:27.991Z,36.85
2022-08-19T09:58:28.583Z,37.03
2022-08-19T09:59:25.340Z,35.98
2022-08-19T10:00:22.226Z,36.78
2022-08-19T10:01:27.353Z,35.42
2022-08-19T10:02:24.178Z,34.14
2022-08-19T10:03:29.959Z,34.41
2022-08-19T10:04:47.183Z,34.47
2022-08-19T10:05:49.800Z,34.03
2022-08-19T10:06:48.661Z,34.47
2022-08-19T10:07:51.196Z,35.04
2022-08-19T10:08:50.219Z,35.06
2022-08-19T10:09:48.058Z,35.78
2022-08-19T10:10:47.194Z,35.13
2022-08-19T10:11:54.966Z,35.59
2022-08-19T10:12:53.254Z,35.11
2022-08-19T10:13:50.603Z,35.59
2022-08-19T10:14:47.441Z,34.54
2022-08-19T10:15:47.591Z,34.94
2022-08-19T10:16:44.675Z,34.11
2022-08-19T10:17:41.575Z,34.27
2022-08-19T10:18:45.327Z,34.07
2022-08-19T10:19:55.793Z,34.30
2022-08-19T10:20:54.601Z,33.18
2022-08-19T10:21:51.328Z,33.67
2022-08-19T10:22:48.108Z,34.11
2022-08-19T10:23:52.787Z,33.60
2022-08-19T10:24:50.459Z,33.55
2022-08-19T10:25:47.278Z,33.68
2022-08-19T10:26:48.590Z,33.75
2022-08-19T10:27:53.047Z,33.86
2022-08-19T10:28:53.589Z,33.72
2022-08-19T10:29:51.617Z,33.84
2022-08-19T10:30:48.639Z,33.55
2022-08-19T10:32:02.293Z,34.38
2022-08-19T10:32:59.338Z,34.10
2022-08-19T10:34:00.417Z,34.62
2022-08-19T10:34:59.032Z,34.53
2022-08-19T10:36:09.437Z,34.21
2022-08-19T10:37:09.491Z,34.68
2022-08-19T10:38:07.638Z,33.88
2022-08-19T10:39:09.817Z,33.49
2022-08-19T10:40:09.056Z,33.01
2022-08-19T10:41:11.736Z,33.79
2022-08-19T10:42:11.576Z,33.29
2022-08-19T10:43:08.428Z,34.78
2022-08-19T10:44:10.905Z,34.13
2022-08-19T10:45:11.211Z,33.17
2022-08-19T10:46:14.192Z,33.52
2022-08-19T10:47:24.353Z,33.13
2022-08-19T10:48:22.426Z,34.10
2022-08-19T10:49:20.360Z,33.98
2022-08-19T10:50:35.898Z,34.06
2022-08-19T10:51:53.700Z,33.69
2022-08-19T10:52:51.492Z,33.25
2022-08-19T10:53:48.745Z,34.01
2022-08-19T10:55:05.039Z,33.69
2022-08-19T10:56:21.135Z,33.15
2022-08-19T10:57:17.883Z,33.79
2022-08-19T10:58:17.880Z,33.34
2022-08-19T10:59:16.331Z,33.91
2022-08-19T11:00:14.386Z,33.64
2022-08-19T11:01:11.463Z,33.48
2022-08-19T11:02:11.134Z,33.72
2022-08-19T11:03:07.986Z,33.23
2022-08-19T11:04:09.426Z,33.81
2022-08-19T11:05:12.755Z,33.31
2022-08-19T11:06:10.366Z,33.64
2022-08-19T11:07:08.223Z,33.24
2022-08-19T11:08:18.195Z,33.17
2022-08-19T11:09:33.984Z,33.43
2022-08-19T11:10:31.174Z,33.29
2022-08-19T11:11:29.455Z,33.12
2022-08-19T11:12:28.789Z,33.61
2022-08-19T11:13:26.044Z,32.64
2022-08-19T11:14:25.402Z,33.03
2022-08-19T11:15:24.302Z,33.29
2022-08-19T11:16:24.113Z,33.94
2022-08-19T11:17:21.139Z,32.70
2022-08-19T11:18:18.471Z,33.01
2022-08-19T11:19:18.039Z,33.12
2022-08-19T11:20:16.032Z,33.50
2022-08-19T11:21:19.997Z,33.29
2022-08-19T11:22:19.546Z,32.53
2022-08-19T11:23:16.307Z,32.74
2022-08-19T11:24:16.893Z,32.83
2022-08-19T11:25:13.891Z,33.17
2022-08-19T11:26:11.363Z,34.09
2022-08-19T11:27:10.296Z,33.89
2022-08-19T11:28:07.121Z,33.81
2022-08-19T11:29:05.537Z,34.12
2022-08-19T11:30:04.514Z,34.05
2022-08-19T11:31:04.453Z,34.46
2022-08-19T11:32:08.495Z,34.31
2022-08-19T11:33:05.241Z,33.53
2022-08-19T11:34:06.456Z,34.53
2022-08-19T11:35:03.957Z,34.28
2022-08-19T11:36:02.143Z,33.44
2022-08-19T11:36:59.958Z,34.33
2022-08-19T11:38:00.068Z,33.61
2022-08-19T11:38:56.837Z,34.66
2022-08-19T11:39:54.499Z,35.07
2022-08-19T11:41:04.378Z,35.47
2022-08-19T11:42:24.836Z,34.36
2022-08-19T11:43:21.578Z,33.25
2022-08-19T11:44:18.966Z,33.82
2022-08-19T11:45:15.790Z,33.51
2022-08-19T11:46:15.043Z,33.58
2022-08-19T11:47:12.385Z,33.57
2022-08-19T11:48:09.182Z,33.59
2022-08-19T11:49:13.883Z,33.92
2022-08-19T11:50:10.866Z,34.03
2022-08-19T11:51:11.689Z,33.76
2022-08-19T11:52:08.418Z,33.50
2022-08-19T11:53:05.172Z,32.78
2022-08-19T11:54:06.796Z,33.59
2022-08-19T11:55:03.843Z,33.32
2022-08-19T11:56:00.582Z,33.25
2022-08-19T11:56:57.379Z,32.60
2022-08-19T11:57:54.308Z,32.51
2022-08-19T11:58:53.028Z,32.92
2022-08-19T11:59:53.717Z,32.61
2022-08-19T12:00:50.442Z,32.34
2022-08-19T12:01:47.330Z,32.92
2022-08-19T12:02:44.150Z,32.75
2022-08-19T12:03:41.646Z,32.74
2022-08-19T12:04:38.617Z,32.77
2022-08-19T12:05:38.269Z,32.46
2022-08-19T12:06:35.729Z,32.59
2022-08-19T12:07:34.112Z,32.35
2022-08-19T12:08:30.817Z,32.18
2022-08-19T12:09:27.588Z,32.55
2022-08-19T12:10:27.783Z,33.01
2022-08-19T12:11:25.498Z,33.00
2022-08-19T12:12:23.014Z,32.46
2022-08-19T12:13:19.780Z,32.93
2022-08-19T12:14:17.365Z,33.59
2022-08-19T12:15:15.971Z,34.12
2022-08-19T12:16:17.301Z,33.99
2022-08-19T12:17:14.336Z,33.99
2022-08-19T12:18:11.178Z,33.49
2022-08-19T12:19:08.046Z,33.71
2022-08-19T12:20:06.787Z,33.64
2022-08-19T12:21:04.755Z,33.32
2022-08-19T12:22:03.932Z,32.63
2022-08-19T12:23:00.732Z,32.87
2022-08-19T12:23:59.673Z,32.61
2022-08-19T12:24:56.443Z,32.67
2022-08-19T12:25:53.279Z,33.17
2022-08-19T12:26:52.833Z,33.07
2022-08-19T12:27:57.343Z,33.02
2022-08-19T12:28:55.359Z,33.78
2022-08-19T12:29:52.106Z,33.88
2022-08-19T12:30:52.043Z,33.67
2022-08-19T12:31:48.778Z,33.55
2022-08-19T12:32:45.549Z,33.73
2022-08-19T12:33:43.122Z,32.80
2022-08-19T12:34:40.756Z,33.08
2022-08-19T12:35:45.741Z,32.88
2022-08-19T12:36:42.613Z,32.61
2022-08-19T12:37:45.290Z,33.33
2022-08-19T12:38:54.204Z,33.28
2022-08-19T12:39:50.984Z,33.07
2022-08-19T12:40:49.280Z,32.90
2022-08-19T12:41:54.110Z,32.80
2022-08-19T12:42:52.094Z,33.10
2022-08-19T12:43:50.774Z,32.94
2022-08-19T12:44:48.609Z,33.46
2022-08-19T12:45:45.998Z,33.19
2022-08-19T12:46:43.837Z,33.34
2022-08-19T12:47:41.101Z,33.76
2022-08-19T12:48:43.621Z,33.95
2022-08-19T12:49:54.671Z,33.56
2022-08-19T12:50:52.448Z,33.16
2022-08-19T12:51:49.166Z,33.61
2022-08-19T12:52:45.864Z,32.85
2022-08-19T12:53:44.139Z,32.54
2022-08-19T12:54:40.890Z,31.97
2022-08-19T12:55:37.702Z,32.54